Time;durP1;ratioP1;P1;durP2;ratioP2;P2;SDS_P1;SDS_P2;PMS_P1;PMS_P2;Temp;Humidity;BMP_temperature;BMP_pressure;BME280_temperature;BME280_humidity;BME280_pressure;Samples;Min_cycle;Max_cycle;Signal;HPM_P1;HPM_P2
2023/06/20 00:00:56;;;;;;;5.80;4.30;;;24.40;99.90;;;;;;5074497;28;20170;-51
2023/06/20 00:03:22;;;;;;;7.53;4.55;;;24.00;99.90;;;;;;5074710;28;20177;-53
2023/06/20 00:05:47;;;;;;;8.90;4.40;;;23.80;99.90;;;;;;5074548;28;20695;-52
2023/06/20 00:08:13;;;;;;;8.07;4.75;;;23.90;99.90;;;;;;5074413;28;20309;-52
2023/06/20 00:10:38;;;;;;;9.98;4.40;;;24.00;99.90;;;;;;5074832;28;20193;-51
2023/06/20 00:13:04;;;;;;;5.97;4.32;;;;;;;;;;5074731;28;20664;-51
2023/06/20 00:15:30;;;;;;;5.93;4.53;;;23.90;99.90;;;;;;5075010;28;20169;-51
2023/06/20 00:17:59;;;;;;;6.05;4.53;;;23.60;99.90;;;;;;5074222;28;20174;-51
2023/06/20 00:20:26;;;;;;;7.20;4.88;;;;;;;;;;5074236;28;20174;-52
2023/06/20 00:22:52;;;;;;;5.50;3.95;;;23.10;99.90;;;;;;5073944;28;20261;-51
2023/06/20 00:25:17;;;;;;;4.70;4.03;;;23.20;99.90;;;;;;5073772;28;20257;-51
2023/06/20 00:27:43;;;;;;;5.35;4.72;;;23.30;99.90;;;;;;5073864;28;20303;-51
2023/06/20 00:30:09;;;;;;;8.95;4.70;;;23.40;99.90;;;;;;5055806;28;20162;-51
2023/06/20 00:32:35;;;;;;;5.38;4.22;;;23.00;99.90;;;;;;5073979;28;20532;-51
2023/06/20 00:35:00;;;;;;;6.05;4.13;;;23.30;99.90;;;;;;5074474;28;20170;-51
2023/06/20 00:37:26;;;;;;;6.55;4.85;;;23.00;99.90;;;;;;5073890;28;20174;-51
2023/06/20 00:39:52;;;;;;;7.43;5.10;;;23.00;99.90;;;;;;5073880;28;20178;-51
2023/06/20 00:42:19;;;;;;;9.27;4.85;;;23.20;99.90;;;;;;5073818;28;20194;-52
2023/06/20 00:44:46;;;;;;;11.77;5.35;;;23.10;99.90;;;;;;5074034;28;20269;-51
2023/06/20 00:47:16;;;;;;;9.40;4.93;;;23.10;99.90;;;;;;5073586;28;20706;-51
2023/06/20 00:49:44;;;;;;;6.05;4.97;;;22.80;99.90;;;;;;5073667;28;20198;-51
2023/06/20 00:52:11;;;;;;;8.57;5.13;;;22.90;99.90;;;;;;5073645;28;20173;-51
2023/06/20 00:54:37;;;;;;;17.60;5.45;;;23.10;99.90;;;;;;5072250;28;20178;-51
2023/06/20 00:57:03;;;;;;;16.20;5.10;;;23.10;99.90;;;;;;5073106;28;20528;-51
2023/06/20 00:59:29;;;;;;;23.90;6.03;;;23.10;99.90;;;;;;5056313;28;20633;-51
2023/06/20 01:01:55;;;;;;;17.13;5.78;;;23.10;99.90;;;;;;5073503;28;20180;-51
2023/06/20 01:04:20;;;;;;;17.35;5.80;;;23.10;99.90;;;;;;5073278;28;20166;-52
2023/06/20 01:06:59;;;;;;;12.10;5.80;;;23.40;99.90;;;;;;5073572;28;20273;-51
2023/06/20 01:09:44;;;;;;;10.77;4.75;;;23.10;99.90;;;;;;5073053;28;20253;-51
2023/06/20 01:12:29;;;;;;;12.30;5.38;;;23.10;99.90;;;;;;5073187;28;20170;-51
2023/06/20 01:14:59;;;;;;;8.73;5.00;;;23.10;99.90;;;;;;5073507;28;20518;-51
2023/06/20 01:17:46;;;;;;;11.65;5.18;;;23.00;99.90;;;;;;5073052;28;20166;-51
2023/06/20 01:20:23;;;;;;;11.93;5.00;;;23.50;99.90;;;;;;5055211;28;20746;-52
2023/06/20 01:23:11;;;;;;;10.88;5.47;;;23.20;99.90;;;;;;5073070;28;20162;-51
2023/06/20 01:26:08;;;;;;;8.80;5.20;;;22.80;99.90;;;;;;5072666;28;20170;-52
2023/06/20 01:28:46;;;;;;;15.73;5.20;;;22.90;99.90;;;;;;5041943;28;20222;-51
2023/06/20 01:31:15;;;;;;;11.65;5.10;;;23.00;99.90;;;;;;5072643;28;20369;-51
2023/06/20 01:34:02;;;;;;;12.43;5.50;;;22.60;99.90;;;;;;5072613;28;20245;-51
2023/06/20 01:36:34;;;;;;;8.73;5.15;;;22.90;99.90;;;;;;5072603;28;20162;-51
2023/06/20 01:39:07;;;;;;;8.20;5.18;;;22.80;99.90;;;;;;5072306;28;20513;-52
2023/06/20 01:41:37;;;;;;;8.57;5.20;;;22.70;99.90;;;;;;5072339;28;20174;-52
2023/06/20 01:44:05;;;;;;;11.35;5.53;;;22.70;99.90;;;;;;5073226;28;20170;-51
2023/06/20 01:46:32;;;;;;;8.95;5.30;;;22.60;99.90;;;;;;5072944;28;20174;-51
2023/06/20 01:48:59;;;;;;;6.30;5.03;;;22.70;99.90;;;;;;5072267;28;20206;-52
2023/06/20 01:51:26;;;;;;;7.75;5.15;;;22.60;99.90;;;;;;5072389;28;20166;-52
2023/06/20 01:53:53;;;;;;;10.85;5.25;;;22.00;99.90;;;;;;5072354;28;20188;-51
2023/06/20 01:56:20;;;;;;;6.07;4.88;;;22.50;99.90;;;;;;5072248;28;20158;-52
2023/06/20 01:58:47;;;;;;;8.68;5.40;;;22.50;99.90;;;;;;5072057;28;20212;-51
2023/06/20 02:01:15;;;;;;;13.82;5.47;;;22.20;99.90;;;;;;5072106;28;20194;-51
2023/06/20 02:03:41;;;;;;;8.82;5.45;;;22.30;99.90;;;;;;5071797;28;20170;-52
2023/06/20 02:06:09;;;;;;;9.43;4.82;;;22.40;99.90;;;;;;5072434;28;20210;-53
2023/06/20 02:08:37;;;;;;;7.97;5.95;;;22.50;99.90;;;;;;5071991;28;20565;-53
2023/06/20 02:11:04;;;;;;;7.15;5.40;;;22.50;99.90;;;;;;5072382;28;20173;-53
2023/06/20 02:13:30;;;;;;;10.13;5.43;;;22.20;99.90;;;;;;5072684;28;20185;-52
2023/06/20 02:15:57;;;;;;;11.40;5.95;;;22.20;99.90;;;;;;5072034;28;20241;-51
2023/06/20 02:18:23;;;;;;;11.32;6.05;;;22.20;99.90;;;;;;5072251;28;20169;-51
2023/06/20 02:20:52;;;;;;;6.03;5.43;;;22.30;99.90;;;;;;5054060;28;20158;-51
2023/06/20 02:23:26;;;;;;;9.00;5.40;;;22.50;99.90;;;;;;5071889;28;20305;-51
2023/06/20 02:25:56;;;;;;;9.18;5.35;;;22.30;99.90;;;;;;5071803;28;20241;-51
2023/06/20 02:28:24;;;;;;;6.57;5.50;;;22.40;99.90;;;;;;5072021;28;20213;-51
2023/06/20 02:30:54;;;;;;;8.82;5.85;;;22.30;99.90;;;;;;5071679;28;20188;-51
2023/06/20 02:33:21;;;;;;;6.15;5.30;;;22.30;99.90;;;;;;5071504;28;20255;-51
2023/06/20 02:35:49;;;;;;;7.78;5.93;;;22.20;99.90;;;;;;5071634;28;20155;-52
2023/06/20 02:38:14;;;;;;;6.93;5.75;;;22.30;99.90;;;;;;5071377;28;20158;-51
2023/06/20 02:40:40;;;;;;;8.82;5.93;;;;;;;;;;5053718;28;20659;-52
2023/06/20 02:43:08;;;;;;;8.85;5.43;;;;;;;;;;5071421;28;20166;-52
2023/06/20 02:45:34;;;;;;;8.10;5.57;;;22.30;99.90;;;;;;5071610;28;20208;-51
2023/06/20 02:48:18;;;;;;;11.93;5.78;;;22.30;99.90;;;;;;5071859;28;20200;-51
2023/06/20 02:51:06;;;;;;;6.63;5.85;;;22.30;99.90;;;;;;5071414;28;20169;-51
2023/06/20 02:53:50;;;;;;;6.75;5.32;;;22.30;99.90;;;;;;5071742;28;20170;-51
2023/06/20 02:56:17;;;;;;;8.85;5.53;;;22.20;99.90;;;;;;5071738;28;20601;-52
2023/06/20 02:58:50;;;;;;;6.78;5.53;;;21.90;99.90;;;;;;5071718;28;20545;-52
2023/06/20 03:01:23;;;;;;;8.27;5.43;;;22.10;99.90;;;;;;5071723;28;20174;-52
2023/06/20 03:03:52;;;;;;;6.57;4.85;;;22.20;99.90;;;;;;5071411;28;20641;-51
2023/06/20 03:06:26;;;;;;;5.47;4.07;;;21.70;99.90;;;;;;5071668;28;20174;-52
2023/06/20 03:08:53;;;;;;;6.13;4.97;;;22.00;99.90;;;;;;5070860;28;20232;-52
2023/06/20 03:11:19;;;;;;;8.10;4.57;;;22.10;99.90;;;;;;5071317;28;20508;-51
2023/06/20 03:13:45;;;;;;;7.90;4.68;;;21.80;99.90;;;;;;5071357;28;20165;-51
2023/06/20 03:16:10;;;;;;;5.50;4.40;;;22.10;99.90;;;;;;5071307;28;20656;-52
2023/06/20 03:18:37;;;;;;;8.18;5.05;;;22.10;99.90;;;;;;5071300;28;20313;-51
2023/06/20 03:21:02;;;;;;;6.70;4.80;;;22.00;99.90;;;;;;5071719;28;20208;-51
2023/06/20 03:23:28;;;;;;;9.20;4.97;;;21.90;99.90;;;;;;5071920;28;20170;-52
2023/06/20 03:25:53;;;;;;;7.70;5.05;;;21.90;99.90;;;;;;5071333;28;20245;-53
2023/06/20 03:28:19;;;;;;;7.70;4.80;;;22.10;99.90;;;;;;5071241;28;20233;-53
2023/06/20 03:30:45;;;;;;;8.48;4.75;;;21.80;99.90;;;;;;5071266;28;20169;-52
2023/06/20 03:33:10;;;;;;;8.88;5.10;;;21.60;99.90;;;;;;5071155;28;20634;-52
2023/06/20 03:35:36;;;;;;;6.13;4.93;;;21.80;99.90;;;;;;5071100;28;20695;-52
2023/06/20 03:38:02;;;;;;;6.70;4.88;;;21.80;99.90;;;;;;5071570;28;20714;-51
2023/06/20 03:40:28;;;;;;;7.13;5.30;;;;;;;;;;5071024;28;20532;-51
2023/06/20 03:42:53;;;;;;;10.00;5.13;;;21.90;99.90;;;;;;5070813;28;20166;-52
2023/06/20 03:45:19;;;;;;;7.53;5.00;;;;;;;;;;5070992;28;20198;-52
2023/06/20 03:47:45;;;;;;;7.85;4.97;;;21.90;99.90;;;;;;5070547;28;20197;-52
2023/06/20 03:50:10;;;;;;;11.30;5.03;;;22.10;99.90;;;;;;5071016;28;20568;-51
2023/06/20 03:52:37;;;;;;;5.78;4.82;;;;;;;;;;5070132;28;20583;-51
2023/06/20 03:55:03;;;;;;;8.50;5.43;;;21.90;99.90;;;;;;5071146;28;20258;-51
2023/06/20 03:57:28;;;;;;;6.45;4.97;;;21.80;99.90;;;;;;5071596;28;20166;-51
2023/06/20 03:59:54;;;;;;;7.35;4.97;;;21.80;99.90;;;;;;5070967;28;20166;-51
2023/06/20 04:02:19;;;;;;;9.02;5.20;;;21.80;99.90;;;;;;5070917;28;20231;-51
2023/06/20 04:04:49;;;;;;;6.97;5.10;;;21.50;99.90;;;;;;5073076;28;20174;-51
2023/06/20 04:07:18;;;;;;;5.18;4.50;;;21.60;99.90;;;;;;5074184;28;20576;-51
2023/06/20 04:09:44;;;;;;;7.15;4.63;;;21.70;99.90;;;;;;5074684;28;20181;-51
2023/06/20 04:12:10;;;;;;;12.32;5.15;;;21.90;99.90;;;;;;5074380;28;20174;-51
2023/06/20 04:14:35;;;;;;;10.23;5.05;;;21.40;99.90;;;;;;5074320;28;20165;-51
2023/06/20 04:17:01;;;;;;;8.32;4.88;;;;;;;;;;5074606;28;20552;-51
2023/06/20 04:19:27;;;;;;;11.07;4.82;;;21.70;99.90;;;;;;5073949;28;20644;-51
2023/06/20 04:21:52;;;;;;;9.77;5.30;;;21.60;99.90;;;;;;5074255;28;20238;-51
2023/06/20 04:24:18;;;;;;;7.30;5.45;;;21.60;99.90;;;;;;5074204;28;20669;-51
2023/06/20 04:26:43;;;;;;;6.82;5.60;;;21.60;99.90;;;;;;5074113;28;20177;-51
2023/06/20 04:29:09;;;;;;;8.77;5.63;;;21.50;99.90;;;;;;5073920;28;20208;-51
2023/06/20 04:31:35;;;;;;;7.43;5.22;;;21.70;99.90;;;;;;5073982;28;20246;-52
2023/06/20 04:34:00;;;;;;;7.03;5.35;;;21.60;99.90;;;;;;5074334;28;20220;-52
2023/06/20 04:36:26;;;;;;;10.20;5.32;;;21.70;99.90;;;;;;5073927;28;20521;-51
2023/06/20 04:38:52;;;;;;;13.07;6.10;;;21.70;99.90;;;;;;5074180;28;20166;-52
2023/06/20 04:41:18;;;;;;;8.13;5.63;;;21.60;99.90;;;;;;5074107;28;20176;-52
2023/06/20 04:43:44;;;;;;;8.32;5.30;;;21.60;99.90;;;;;;5073824;28;20196;-51
2023/06/20 04:46:15;;;;;;;6.15;5.28;;;21.60;99.90;;;;;;5073810;28;20227;-51
2023/06/20 04:48:41;;;;;;;9.23;5.07;;;21.50;99.90;;;;;;5073670;28;20206;-52
2023/06/20 04:51:08;;;;;;;11.00;5.88;;;21.90;99.90;;;;;;5073635;28;20657;-52
2023/06/20 04:53:35;;;;;;;11.75;5.57;;;21.80;99.90;;;;;;5073584;28;20205;-51
2023/06/20 04:56:01;;;;;;;8.48;4.90;;;22.00;99.90;;;;;;5074224;28;20193;-51
2023/06/20 04:58:28;;;;;;;6.65;5.53;;;22.00;99.90;;;;;;5073626;28;20193;-53
2023/06/20 05:00:57;;;;;;;6.53;4.85;;;21.90;99.90;;;;;;5073594;28;20165;-54
2023/06/20 05:03:23;;;;;;;8.90;5.45;;;;;;;;;;5073498;28;20170;-53
2023/06/20 05:05:49;;;;;;;6.90;5.00;;;22.10;99.90;;;;;;5073280;28;20641;-54
2023/06/20 05:08:15;;;;;;;8.88;5.10;;;22.10;99.90;;;;;;5073190;28;20226;-53
2023/06/20 05:10:40;;;;;;;7.55;5.97;;;21.90;99.90;;;;;;5073458;28;20166;-51
2023/06/20 05:13:06;;;;;;;6.60;4.78;;;22.20;99.90;;;;;;5073197;28;20701;-51
2023/06/20 05:15:31;;;;;;;5.22;4.72;;;22.20;99.90;;;;;;5072307;28;20173;-51
2023/06/20 05:17:57;;;;;;;6.68;4.72;;;22.30;99.90;;;;;;5073154;28;20163;-51
2023/06/20 05:20:22;;;;;;;4.97;4.47;;;22.00;99.90;;;;;;5073281;28;20257;-51
2023/06/20 05:22:48;;;;;;;5.05;4.63;;;21.80;99.90;;;;;;5073268;28;20170;-51
2023/06/20 05:25:14;;;;;;;6.72;3.97;;;21.80;99.90;;;;;;5073226;28;20181;-51
2023/06/20 05:27:40;;;;;;;9.48;4.93;;;21.90;99.90;;;;;;5072875;28;20194;-52
2023/06/20 05:30:06;;;;;;;5.40;4.90;;;22.00;99.90;;;;;;5073171;28;20173;-51
2023/06/20 05:32:32;;;;;;;5.05;4.47;;;22.00;99.90;;;;;;5073305;28;20166;-51
2023/06/20 05:34:57;;;;;;;6.07;4.63;;;22.20;99.90;;;;;;5073232;28;20166;-51
2023/06/20 05:37:23;;;;;;;6.97;4.65;;;22.30;99.90;;;;;;5072720;28;20165;-51
2023/06/20 05:39:48;;;;;;;5.82;4.63;;;22.50;99.90;;;;;;5072624;28;20230;-53
2023/06/20 05:42:14;;;;;;;4.25;3.85;;;22.70;99.90;;;;;;5072561;28;20231;-51
2023/06/20 05:44:39;;;;;;;5.28;4.40;;;22.90;99.90;;;;;;5072427;28;20166;-51
2023/06/20 05:47:06;;;;;;;7.32;4.28;;;23.00;99.90;;;;;;5072664;28;20170;-51
2023/06/20 05:49:32;;;;;;;7.35;4.47;;;22.80;99.90;;;;;;5072819;28;20209;-51
2023/06/20 05:51:57;;;;;;;7.07;4.13;;;23.20;99.90;;;;;;5072906;28;20169;-51
2023/06/20 05:54:23;;;;;;;8.48;4.57;;;23.20;99.90;;;;;;5072275;28;20170;-51
2023/06/20 05:56:50;;;;;;;7.50;5.10;;;23.40;99.90;;;;;;5072369;28;20249;-51
2023/06/20 05:59:15;;;;;;;5.78;5.15;;;23.30;99.90;;;;;;5054377;28;20177;-51
2023/06/20 06:01:41;;;;;;;5.22;4.80;;;23.60;99.90;;;;;;5072344;28;20170;-51
2023/06/20 06:04:07;;;;;;;7.93;5.00;;;23.60;99.90;;;;;;5072270;28;20169;-51
2023/06/20 06:06:32;;;;;;;7.65;4.95;;;23.60;99.90;;;;;;5072231;28;20201;-52
2023/06/20 06:08:58;;;;;;;5.05;4.60;;;;;;;;;;5072397;28;20256;-52
2023/06/20 06:11:25;;;;;;;5.45;4.88;;;23.90;99.90;;;;;;5072018;28;20219;-52
2023/06/20 06:13:50;;;;;;;11.57;5.45;;;23.70;99.90;;;;;;5059719;28;20172;-51
2023/06/20 06:16:17;;;;;;;6.72;4.90;;;23.60;99.90;;;;;;5090498;28;20609;-52
2023/06/20 06:18:43;;;;;;;5.82;5.18;;;23.70;99.90;;;;;;5091572;28;20727;-49
2023/06/20 06:21:09;;;;;;;9.77;5.30;;;23.60;99.90;;;;;;5092119;28;20169;-48
2023/06/20 06:23:34;;;;;;;6.40;5.80;;;24.00;99.90;;;;;;5092231;28;20162;-49
2023/06/20 06:26:00;;;;;;;10.63;5.90;;;23.90;99.90;;;;;;5092006;28;20176;-50
2023/06/20 06:28:28;;;;;;;9.25;6.10;;;24.00;99.90;;;;;;5091682;28;20205;-49
2023/06/20 06:30:54;;;;;;;6.32;5.70;;;24.00;99.90;;;;;;5092017;28;20191;-49
2023/06/20 06:33:20;;;;;;;9.63;6.78;;;24.30;99.90;;;;;;5091946;28;20173;-50
2023/06/20 06:35:47;;;;;;;9.38;6.97;;;24.30;99.90;;;;;;5091902;28;20197;-49
2023/06/20 06:38:13;;;;;;;7.60;6.80;;;24.70;99.90;;;;;;5092259;28;20176;-49
2023/06/20 06:40:39;;;;;;;8.02;7.22;;;24.80;99.90;;;;;;5092157;28;20178;-49
2023/06/20 06:43:05;;;;;;;9.98;7.22;;;24.80;99.90;;;;;;5091929;28;20522;-49
2023/06/20 06:45:32;;;;;;;8.52;7.57;;;25.00;99.90;;;;;;5074164;28;20260;-51
2023/06/20 06:47:57;;;;;;;9.23;7.97;;;24.80;99.90;;;;;;5092349;28;20212;-49
2023/06/20 06:50:23;;;;;;;9.00;7.43;;;24.90;99.90;;;;;;5091753;28;20177;-50
2023/06/20 06:52:49;;;;;;;10.95;7.63;;;25.10;99.90;;;;;;5091678;28;20172;-49
2023/06/20 06:55:14;;;;;;;9.73;7.10;;;25.10;99.90;;;;;;5091659;28;20169;-51
2023/06/20 06:57:40;;;;;;;10.25;6.82;;;24.90;99.90;;;;;;5091732;28;20250;-51
2023/06/20 07:00:12;;;;;;;8.43;6.85;;;24.80;99.90;;;;;;5091521;28;20243;-52
2023/06/20 07:02:38;;;;;;;7.57;6.78;;;25.20;99.90;;;;;;5091474;28;20697;-50
2023/06/20 07:05:05;;;;;;;7.38;6.68;;;25.20;99.90;;;;;;5091560;28;20164;-49
2023/06/20 07:07:30;;;;;;;7.50;6.75;;;25.30;99.90;;;;;;5091902;28;20217;-49
2023/06/20 07:09:56;;;;;;;7.28;6.43;;;25.40;99.90;;;;;;5091455;28;20221;-49
2023/06/20 07:12:22;;;;;;;11.75;7.13;;;;;;;;;;5091556;28;20226;-49
2023/06/20 07:14:50;;;;;;;7.75;7.05;;;25.70;99.90;;;;;;5091439;28;20173;-48
2023/06/20 07:17:15;;;;;;;7.43;6.57;;;25.70;99.90;;;;;;5091727;28;20180;-49
2023/06/20 07:19:43;;;;;;;9.57;6.38;;;25.80;99.90;;;;;;5091420;28;20169;-49
2023/06/20 07:22:09;;;;;;;7.47;6.78;;;25.60;99.90;;;;;;5091448;28;20160;-49
2023/06/20 07:24:35;;;;;;;7.53;6.82;;;;;;;;;;5091448;28;20667;-49
2023/06/20 07:27:00;;;;;;;7.65;5.93;;;25.90;99.90;;;;;;5091833;28;20165;-50
2023/06/20 07:29:26;;;;;;;8.43;6.70;;;26.00;99.90;;;;;;5091367;28;20204;-50
2023/06/20 07:31:51;;;;;;;7.95;6.80;;;26.10;99.90;;;;;;5091622;28;20160;-49
2023/06/20 07:34:17;;;;;;;7.38;5.60;;;26.00;99.90;;;;;;5091331;28;20655;-50
2023/06/20 07:36:43;;;;;;;7.55;6.15;;;26.10;99.90;;;;;;5091379;28;20631;-48
2023/06/20 07:39:08;;;;;;;8.43;5.93;;;25.80;99.90;;;;;;5092745;28;20258;-49
2023/06/20 07:41:34;;;;;;;7.03;5.65;;;26.00;99.90;;;;;;5095215;28;20172;-49
2023/06/20 07:44:00;;;;;;;9.32;6.15;;;26.10;99.90;;;;;;5095566;28;20200;-49
2023/06/20 07:46:25;;;;;;;6.43;5.60;;;26.20;99.90;;;;;;5095157;28;20164;-49
2023/06/20 07:48:51;;;;;;;7.85;5.97;;;26.70;99.90;;;;;;5095308;28;20609;-49
2023/06/20 07:51:16;;;;;;;12.98;6.07;;;26.30;99.90;;;;;;5095112;28;20165;-49
2023/06/20 07:53:42;;;;;;;7.30;6.00;;;26.60;99.90;;;;;;5095120;28;20173;-49
2023/06/20 07:56:07;;;;;;;8.68;5.68;;;26.60;99.90;;;;;;5094921;28;20165;-49
2023/06/20 07:58:33;;;;;;;8.73;6.05;;;26.70;99.90;;;;;;5094922;28;20165;-49
2023/06/20 08:01:00;;;;;;;7.82;5.65;;;26.80;99.90;;;;;;5095336;28;20164;-49
2023/06/20 08:03:26;;;;;;;7.82;5.05;;;26.80;99.90;;;;;;5094659;28;20570;-49
2023/06/20 08:05:52;;;;;;;6.45;5.25;;;26.50;99.90;;;;;;5094975;28;20264;-49
2023/06/20 08:08:18;;;;;;;5.50;5.00;;;26.80;99.90;;;;;;5094598;28;20247;-49
2023/06/20 08:10:43;;;;;;;7.03;5.18;;;27.10;99.90;;;;;;5094737;28;20629;-49
2023/06/20 08:13:09;;;;;;;5.47;4.70;;;27.30;99.90;;;;;;5094630;28;20584;-49
2023/06/20 08:15:35;;;;;;;12.27;5.70;;;27.20;99.90;;;;;;5094666;28;20571;-50
2023/06/20 08:18:00;;;;;;;6.07;5.47;;;27.40;99.90;;;;;;5076803;28;20165;-49
2023/06/20 08:20:26;;;;;;;6.82;5.30;;;27.50;99.90;;;;;;5094484;28;20161;-49
2023/06/20 08:22:51;;;;;;;6.00;5.47;;;27.50;99.90;;;;;;5094540;28;20203;-49
2023/06/20 08:25:17;;;;;;;5.97;4.97;;;27.50;99.90;;;;;;5076291;28;20643;-49
2023/06/20 08:27:42;;;;;;;5.78;4.22;;;27.40;99.90;;;;;;5094613;28;20631;-49
2023/06/20 08:30:08;;;;;;;5.82;4.85;;;27.50;99.90;;;;;;5094341;28;20535;-47
2023/06/20 08:32:36;;;;;;;8.88;4.82;;;27.80;99.90;;;;;;5094153;28;20179;-48
2023/06/20 08:35:02;;;;;;;5.28;4.78;;;27.90;99.90;;;;;;5094492;28;20169;-47
2023/06/20 08:37:28;;;;;;;5.15;4.20;;;27.60;99.90;;;;;;5094842;28;20165;-47
2023/06/20 08:39:53;;;;;;;5.80;4.30;;;27.90;99.90;;;;;;5094406;28;20218;-47
2023/06/20 08:42:19;;;;;;;6.35;4.50;;;28.10;99.90;;;;;;5094037;28;20165;-47
2023/06/20 08:44:44;;;;;;;7.90;4.63;;;28.00;99.90;;;;;;5094033;28;20210;-46
2023/06/20 08:47:10;;;;;;;5.53;4.00;;;27.80;99.90;;;;;;5094021;28;20619;-47
2023/06/20 08:49:36;;;;;;;6.00;4.38;;;27.90;99.90;;;;;;5093487;28;20212;-47
2023/06/20 08:52:08;;;;;;;4.90;4.50;;;28.10;99.90;;;;;;5094156;28;20169;-49
2023/06/20 08:54:39;;;;;;;5.72;4.35;;;27.90;99.90;;;;;;5094065;28;20216;-49
2023/06/20 08:57:06;;;;;;;5.13;4.63;;;28.10;99.90;;;;;;5094095;28;20172;-49
2023/06/20 08:59:33;;;;;;;5.20;4.63;;;28.00;99.90;;;;;;5093974;28;20169;-49
2023/06/20 09:01:59;;;;;;;7.93;4.70;;;28.20;99.90;;;;;;5094107;28;20169;-48
2023/06/20 09:04:27;;;;;;;7.30;4.43;;;28.40;99.90;;;;;;5093593;28;20551;-48
2023/06/20 09:06:53;;;;;;;5.07;4.57;;;28.70;99.90;;;;;;5093847;28;20208;-49
2023/06/20 09:09:20;;;;;;;5.15;4.63;;;28.60;99.90;;;;;;5093358;28;20216;-49
2023/06/20 09:11:56;;;;;;;4.43;4.03;;;28.70;99.90;;;;;;5093519;28;20157;-49
2023/06/20 09:14:29;;;;;;;4.75;4.28;;;28.50;99.90;;;;;;5093466;28;20260;-49
2023/06/20 09:16:55;;;;;;;4.47;4.07;;;28.70;99.90;;;;;;5093390;28;20435;-49
2023/06/20 09:19:22;;;;;;;4.38;3.97;;;28.70;99.90;;;;;;5093402;28;20165;-49
2023/06/20 09:21:47;;;;;;;4.70;3.90;;;29.00;99.90;;;;;;5093361;28;20663;-49
2023/06/20 09:24:20;;;;;;;4.95;4.45;;;29.10;99.90;;;;;;5093201;28;20192;-49
2023/06/20 09:26:48;;;;;;;6.72;4.43;;;29.10;99.90;;;;;;5093470;28;20168;-48
2023/06/20 09:29:16;;;;;;;4.82;4.38;;;28.90;99.90;;;;;;5093275;28;20208;-48
2023/06/20 09:31:46;;;;;;;4.80;4.40;;;29.40;99.90;;;;;;5093167;28;20244;-49
2023/06/20 09:34:13;;;;;;;5.03;4.53;;;29.00;99.90;;;;;;5093147;28;20164;-49
2023/06/20 09:36:40;;;;;;;7.40;4.70;;;29.10;99.90;;;;;;5093071;28;20210;-49
2023/06/20 09:39:13;;;;;;;8.65;4.97;;;29.00;99.90;;;;;;5092864;28;20169;-48
2023/06/20 09:41:45;;;;;;;6.50;4.63;;;29.60;99.90;;;;;;5093195;28;20260;-49
2023/06/20 09:44:12;;;;;;;39.40;10.40;;;29.20;99.90;;;;;;5092838;28;20169;-49
2023/06/20 09:46:37;;;;;;;5.25;4.85;;;29.10;99.90;;;;;;5093078;28;20318;-49
2023/06/20 09:49:04;;;;;;;6.68;4.10;;;29.40;99.90;;;;;;5092739;28;20742;-49
2023/06/20 09:51:33;;;;;;;3.72;3.38;;;29.50;99.90;;;;;;5093338;28;20195;-49
2023/06/20 09:54:05;;;;;;;3.78;3.38;;;30.10;99.90;;;;;;5093049;28;20175;-49
2023/06/20 09:56:38;;;;;;;5.05;4.53;;;30.10;99.90;;;;;;5092984;28;20160;-49
2023/06/20 09:59:08;;;;;;;4.70;4.03;;;30.10;99.90;;;;;;5092850;28;20169;-49
2023/06/20 10:01:34;;;;;;;5.55;3.67;;;29.70;99.90;;;;;;5091856;28;20244;-49
2023/06/20 10:04:00;;;;;;;3.97;3.50;;;29.90;99.90;;;;;;5093027;28;20230;-50
2023/06/20 10:06:26;;;;;;;4.60;3.95;;;29.40;99.90;;;;;;5093009;28;20169;-51
2023/06/20 10:08:52;;;;;;;4.95;3.90;;;29.40;99.90;;;;;;5092280;28;20315;-49
2023/06/20 10:11:20;;;;;;;4.40;4.00;;;29.60;99.90;;;;;;5092631;28;20173;-51
2023/06/20 10:13:46;;;;;;;4.07;3.78;;;29.60;99.90;;;;;;5092282;28;20214;-50
2023/06/20 10:16:12;;;;;;;4.28;3.88;;;29.70;99.90;;;;;;5092301;28;20157;-53
2023/06/20 10:18:38;;;;;;;4.25;3.88;;;29.80;99.90;;;;;;5092392;28;20575;-53
2023/06/20 10:21:14;;;;;;;6.15;4.35;;;29.50;99.90;;;;;;5092451;28;20172;-52
2023/06/20 10:23:40;;;;;;;4.70;4.15;;;29.70;99.90;;;;;;5092510;28;20217;-52
2023/06/20 10:26:10;;;;;;;4.55;4.05;;;30.20;99.90;;;;;;5092145;28;20566;-54
2023/06/20 10:28:38;;;;;;;4.18;3.78;;;30.60;99.90;;;;;;5092216;28;20228;-54
2023/06/20 10:31:04;;;;;;;4.18;3.83;;;30.70;99.90;;;;;;5091987;28;20620;-54
2023/06/20 10:33:36;;;;;;;3.80;3.50;;;30.30;99.90;;;;;;5092466;28;20172;-53
2023/06/20 10:36:01;;;;;;;4.03;3.33;;;29.90;99.90;;;;;;5092272;28;20161;-53
2023/06/20 10:38:28;;;;;;;3.40;3.20;;;30.20;99.90;;;;;;5092594;28;20527;-52
2023/06/20 10:41:14;;;;;;;4.95;3.47;;;30.20;99.90;;;;;;5092121;28;20164;-51
2023/06/20 10:44:01;;;;;;;4.90;3.78;;;30.30;99.90;;;;;;5091848;28;20171;-54
2023/06/20 10:46:46;;;;;;;5.85;3.42;;;30.60;99.90;;;;;;5092468;28;20195;-51
2023/06/20 10:49:12;;;;;;;5.50;3.83;;;31.10;99.90;;;;;;5091988;28;20573;-53
2023/06/20 10:51:44;;;;;;;4.78;3.90;;;31.00;99.90;;;;;;5091727;28;20169;-54
2023/06/20 10:54:14;;;;;;;3.75;3.45;;;30.70;99.90;;;;;;5091602;28;20172;-51
2023/06/20 10:56:40;;;;;;;8.10;4.03;;;30.80;99.90;;;;;;5073593;28;20172;-54
2023/06/20 10:59:15;;;;;;;3.92;3.58;;;30.50;99.90;;;;;;5091701;28;20169;-50
2023/06/20 11:01:42;;;;;;;3.85;3.50;;;30.30;99.90;;;;;;5091623;28;20171;-53
2023/06/20 11:04:09;;;;;;;7.43;4.18;;;30.60;99.90;;;;;;5091662;28;20168;-53
2023/06/20 11:06:35;;;;;;;5.32;3.70;;;30.20;99.90;;;;;;5091876;28;20169;-50
2023/06/20 11:09:01;;;;;;;3.72;3.42;;;;;;;;;;5091351;28;20224;-49
2023/06/20 11:11:39;;;;;;;4.32;3.92;;;30.10;99.90;;;;;;5091955;28;20206;-53
2023/06/20 11:14:22;;;;;;;5.22;3.65;;;30.50;99.90;;;;;;5094997;28;20255;-51
2023/06/20 11:16:49;;;;;;;5.47;3.72;;;30.40;99.90;;;;;;5096053;28;20184;-52
2023/06/20 11:19:22;;;;;;;4.00;3.42;;;30.60;99.90;;;;;;5095914;28;20190;-53
2023/06/20 11:21:48;;;;;;;3.90;3.60;;;30.40;99.90;;;;;;5095741;28;20553;-53
2023/06/20 11:24:14;;;;;;;4.93;3.75;;;30.10;99.90;;;;;;5095641;28;20222;-53
2023/06/20 11:26:39;;;;;;;3.50;3.20;;;30.40;99.90;;;;;;5095566;28;20169;-54
2023/06/20 11:29:05;;;;;;;4.80;3.50;;;30.40;99.90;;;;;;5095696;28;20219;-54
2023/06/20 11:31:32;;;;;;;6.18;3.65;;;30.60;99.90;;;;;;5095466;28;20172;-49
2023/06/20 11:34:16;;;;;;;3.92;3.63;;;30.50;99.90;;;;;;5096047;28;20178;-49
2023/06/20 11:36:42;;;;;;;6.32;3.70;;;30.40;99.90;;;;;;5095555;28;20210;-49
2023/06/20 11:39:13;;;;;;;5.70;3.28;;;30.60;99.90;;;;;;5095621;28;20522;-50
2023/06/20 11:41:38;;;;;;;3.78;3.47;;;30.60;99.90;;;;;;5095262;28;20633;-49
2023/06/20 11:44:04;;;;;;;3.88;3.40;;;30.90;99.90;;;;;;5077121;28;20214;-49
2023/06/20 11:46:30;;;;;;;4.85;3.60;;;31.00;99.90;;;;;;5095612;28;20169;-49
2023/06/20 11:48:56;;;;;;;3.58;3.15;;;31.30;99.90;;;;;;5095506;28;20261;-50
2023/06/20 11:51:24;;;;;;;3.58;3.28;;;30.70;99.90;;;;;;5095135;28;20637;-49
2023/06/20 11:54:12;;;;;;;3.72;3.42;;;30.90;99.90;;;;;;5095158;28;21098;-49
2023/06/20 11:56:41;;;;;;;3.80;3.50;;;31.30;99.90;;;;;;5095054;28;20172;-49
2023/06/20 11:59:08;;;;;;;4.70;3.67;;;31.20;99.90;;;;;;5094887;28;20180;-49
2023/06/20 12:01:34;;;;;;;3.75;3.45;;;31.70;99.90;;;;;;5095208;28;20222;-50
2023/06/20 12:04:10;;;;;;;3.22;3.03;;;31.90;99.90;;;;;;5095288;28;20173;-49
2023/06/20 12:06:43;;;;;;;3.45;3.17;;;32.10;99.90;;;;;;5094738;28;20221;-48
2023/06/20 12:09:16;;;;;;;4.93;3.70;;;32.50;99.90;;;;;;5094527;28;20239;-49
2023/06/20 12:11:48;;;;;;;4.93;3.72;;;32.20;99.90;;;;;;5095022;28;20516;-49
2023/06/20 12:14:15;;;;;;;5.95;4.05;;;31.60;99.90;;;;;;5094705;28;20266;-49
2023/06/20 12:16:40;;;;;;;4.30;3.88;;;32.00;99.90;;;;;;5094570;28;20184;-51
2023/06/20 12:19:06;;;;;;;3.63;3.35;;;32.00;99.90;;;;;;5094549;28;20169;-49
2023/06/20 12:21:32;;;;;;;3.65;3.08;;;32.10;99.90;;;;;;5094510;28;20160;-49
2023/06/20 12:23:57;;;;;;;3.88;3.58;;;32.30;99.90;;;;;;5094670;28;20244;-49
2023/06/20 12:26:23;;;;;;;3.30;3.08;;;32.20;99.10;;;;;;5075829;28;20196;-49
2023/06/20 12:28:49;;;;;;;3.63;3.30;;;;;;;;;;5094265;28;20672;-48
2023/06/20 12:31:15;;;;;;;3.70;3.40;;;32.90;98.40;;;;;;5094286;28;20175;-49
2023/06/20 12:33:41;;;;;;;3.50;3.20;;;32.80;97.00;;;;;;5094264;28;20180;-49
2023/06/20 12:36:08;;;;;;;3.47;3.17;;;32.10;97.60;;;;;;5094254;28;20697;-49
2023/06/20 12:38:34;;;;;;;3.20;3.00;;;31.80;97.20;;;;;;5094236;28;20161;-49
2023/06/20 12:41:00;;;;;;;4.57;3.50;;;32.00;97.80;;;;;;5094423;28;20242;-50
2023/06/20 12:43:26;;;;;;;3.70;3.40;;;32.30;98.40;;;;;;5094564;28;20169;-49
2023/06/20 12:45:57;;;;;;;3.40;3.10;;;32.90;98.00;;;;;;5094192;28;20635;-49
2023/06/20 12:48:24;;;;;;;5.88;3.67;;;33.20;96.60;;;;;;5094181;28;20229;-49
2023/06/20 12:50:50;;;;;;;4.20;3.70;;;32.60;95.40;;;;;;5094272;28;20173;-49
2023/06/20 12:53:16;;;;;;;3.90;3.50;;;32.60;96.00;;;;;;5094144;28;20173;-49